Time;durP1;ratioP1;P1;durP2;ratioP2;P2;SDS_P1;SDS_P2;PMS_P1;PMS_P2;Temp;Humidity;BMP_temperature;BMP_pressure;BME280_temperature;BME280_humidity;BME280_pressure;Samples;Min_cycle;Max_cycle;Signal;HPM_P1;HPM_P2
2022/12/08 00:01:40;;;;;;;23.90;10.20;;;;;;;1.57;76.65;98507.65;103401;1292;110861;-73
2022/12/08 00:04:10;;;;;;;25.50;11.80;;;;;;;1.57;76.46;98508.69;103268;1294;97884;-70
2022/12/08 00:09:32;;;;;;;24.10;10.10;;;;;;;1.58;76.34;98511.61;103523;1298;97055;-73
2022/12/08 00:12:11;;;;;;;23.60;11.10;;;;;;;1.58;76.37;98508.31;103508;1291;97970;-71
2022/12/08 00:14:46;;;;;;;23.60;10.40;;;;;;;1.58;76.60;98511.27;103429;1291;110956;-69
2022/12/08 00:17:16;;;;;;;23.90;11.50;;;;;;;1.58;76.29;98509.88;103297;1288;95176;-70
2022/12/08 00:19:46;;;;;;;23.60;10.60;;;;;;;1.58;76.48;98512.52;103476;1292;107518;-70
2022/12/08 00:22:14;;;;;;;23.70;10.00;;;;;;;1.58;76.29;98510.23;103490;1285;97885;-69
2022/12/08 00:24:45;;;;;;;22.80;10.30;;;;;;;1.57;76.60;98512.02;103561;1292;98549;-70
2022/12/08 00:27:17;;;;;;;27.50;13.10;;;;;;;1.57;76.20;98516.54;103318;1295;110744;-69
2022/12/08 00:29:45;;;;;;;25.00;11.30;;;;;;;1.57;76.50;98519.88;103543;1299;97816;-70
2022/12/08 00:32:13;;;;;;;24.30;11.60;;;;;;;1.57;76.46;98527.21;103458;1291;108590;-70
2022/12/08 00:34:41;;;;;;;22.50;10.60;;;;;;;1.58;76.28;98527.19;103500;1291;97886;-69
2022/12/08 00:37:09;;;;;;;23.20;11.00;;;;;;;1.59;76.19;98529.23;103508;1295;96289;-69
2022/12/08 00:39:37;;;;;;;22.00;10.80;;;;;;;1.60;76.06;98526.40;103343;1283;111626;-69
2022/12/08 00:42:11;;;;;;;24.10;10.80;;;;;;;1.59;76.25;98524.87;103319;1302;98434;-69
2022/12/08 00:44:44;;;;;;;23.40;10.10;;;;;;;1.60;76.31;98526.06;103396;1298;107631;-70
2022/12/08 00:47:15;;;;;;;23.10;10.80;;;;;;;1.58;76.22;98529.81;103401;1291;97899;-71
2022/12/08 00:49:51;;;;;;;24.70;11.00;;;;;;;1.56;76.32;98532.51;103387;1298;95188;-72
2022/12/08 00:52:19;;;;;;;24.30;11.40;;;;;;;1.53;76.24;98534.91;103387;1291;111774;-71
2022/12/08 00:54:47;;;;;;;23.00;11.20;;;;;;;1.51;76.19;98536.91;103453;1295;96694;-69
2022/12/08 00:57:15;;;;;;;23.50;11.30;;;;;;;1.50;75.99;98539.23;103494;1297;107494;-69
2022/12/08 00:59:43;;;;;;;23.30;10.70;;;;;;;1.48;75.93;98538.11;103521;1291;95273;-72
2022/12/08 01:02:11;;;;;;;23.20;10.70;;;;;;;1.46;76.10;98537.27;103410;1301;97870;-70
2022/12/08 01:04:38;;;;;;;23.10;10.60;;;;;;;1.46;76.10;98538.36;103422;1298;110835;-70
2022/12/08 01:07:08;;;;;;;21.90;10.30;;;;;;;1.44;76.01;98540.70;103531;1288;97855;-70
2022/12/08 01:09:36;;;;;;;24.30;10.70;;;;;;;1.43;76.04;98538.66;103406;1291;107613;-71
2022/12/08 01:12:06;;;;;;;24.50;11.50;;;;;;;1.40;75.87;98544.21;103469;1291;97893;-70
2022/12/08 01:14:36;;;;;;;25.20;11.00;;;;;;;1.39;75.99;98543.40;103489;1291;98032;-69
2022/12/08 01:17:04;;;;;;;22.30;9.90;;;;;;;1.37;76.31;98543.14;103564;1291;111524;-70
2022/12/08 01:19:34;;;;;;;22.30;11.10;;;;;;;1.33;75.78;98540.98;103581;1295;98640;-74
2022/12/08 01:22:02;;;;;;;24.20;11.20;;;;;;;1.31;75.84;98541.80;103571;1291;107349;-70
2022/12/08 01:24:32;;;;;;;25.40;11.50;;;;;;;1.30;76.32;98543.41;103498;1298;95189;-73
2022/12/08 01:27:00;;;;;;;25.80;10.80;;;;;;;1.29;75.83;98543.98;103557;1295;95100;-73
2022/12/08 01:29:28;;;;;;;25.00;11.20;;;;;;;1.28;76.01;98547.00;103543;1295;111481;-72
2022/12/08 01:31:55;;;;;;;22.80;10.50;;;;;;;1.27;75.90;98552.62;103461;1299;95763;-73
2022/12/08 01:34:23;;;;;;;23.80;11.30;;;;;;;1.26;76.06;98549.16;103512;1297;107453;-73
2022/12/08 01:36:51;;;;;;;24.10;10.90;;;;;;;1.26;76.24;98554.60;103512;1291;98066;-72
2022/12/08 01:39:19;;;;;;;23.80;12.10;;;;;;;1.26;76.07;98550.22;103578;1291;97899;-72
2022/12/08 01:41:49;;;;;;;23.50;10.10;;;;;;;1.25;76.24;98555.51;103390;1282;110367;-73
2022/12/08 01:44:17;;;;;;;23.80;10.80;;;;;;;1.25;76.07;98556.73;103591;1291;97980;-73
2022/12/08 01:46:49;;;;;;;24.00;10.20;;;;;;;1.24;76.01;98554.17;103573;1298;105498;-72
2022/12/08 01:49:28;;;;;;;24.40;11.20;;;;;;;1.23;76.04;98556.46;103553;1299;97963;-72
2022/12/08 01:51:56;;;;;;;23.90;10.70;;;;;;;1.21;76.19;98555.34;103558;1291;97899;-71
2022/12/08 01:54:30;;;;;;;23.80;10.30;;;;;;;1.20;76.30;98557.64;103536;1291;110755;-72
2022/12/08 01:57:13;;;;;;;22.20;9.80;;;;;;;1.18;76.08;98557.55;103541;1298;96855;-71
2022/12/08 01:59:47;;;;;;;21.50;10.10;;;;;;;1.17;75.78;98555.69;103559;1292;107277;-71
2022/12/08 02:02:15;;;;;;;25.60;11.70;;;;;;;1.16;76.00;98555.02;103539;1294;97973;-72
2022/12/08 02:04:45;;;;;;;21.30;10.00;;;;;;;1.16;75.99;98553.97;103550;1297;97828;-72
2022/12/08 02:07:15;;;;;;;24.10;10.90;;;;;;;1.14;75.79;98557.70;103491;1291;111241;-71
2022/12/08 02:09:44;;;;;;;23.60;10.90;;;;;;;1.13;76.08;98556.54;103396;1291;96203;-70
2022/12/08 02:12:13;;;;;;;23.40;11.30;;;;;;;1.13;76.19;98555.98;103394;1291;107241;-70
2022/12/08 02:14:41;;;;;;;22.30;10.40;;;;;;;1.13;75.96;98558.95;103409;1297;97904;-70
2022/12/08 02:17:08;;;;;;;23.20;10.80;;;;;;;1.13;75.91;98561.08;103507;1292;95109;-70
2022/12/08 02:19:52;;;;;;;24.40;11.30;;;;;;;1.12;76.20;98555.54;103338;1295;111350;-71
2022/12/08 02:22:26;;;;;;;23.80;9.90;;;;;;;1.12;76.11;98553.80;103507;1298;95203;-70
2022/12/08 02:25:14;;;;;;;24.00;11.60;;;;;;;1.10;76.10;98552.83;103368;1294;107468;-69
2022/12/08 02:27:57;;;;;;;24.40;10.60;;;;;;;1.09;76.07;98555.15;103471;1298;96293;-69
2022/12/08 02:30:25;;;;;;;23.60;10.40;;;;;;;1.08;76.00;98551.17;103461;1294;98014;-69
2022/12/08 02:32:55;;;;;;;26.20;12.10;;;;;;;1.06;75.88;98557.35;103423;1298;111806;-69
2022/12/08 02:36:00;;;;;;;23.40;11.00;;;;;;;1.05;75.91;98561.40;103415;1295;97726;-70
2022/12/08 02:38:38;;;;;;;25.30;11.70;;;;;;;1.03;75.99;98561.30;103081;1307;106476;-69
2022/12/08 02:41:10;;;;;;;25.50;11.50;;;;;;;1.00;76.01;98560.90;103529;1295;98424;-70
2022/12/08 02:43:47;;;;;;;23.70;11.40;;;;;;;0.98;75.85;98564.13;103336;1301;98073;-69
2022/12/08 02:46:29;;;;;;;23.00;11.10;;;;;;;0.97;75.85;98565.93;103462;1292;112085;-69
2022/12/08 02:49:01;;;;;;;21.80;10.70;;;;;;;0.96;75.94;98564.41;103390;1298;97955;-69
2022/12/08 02:51:29;;;;;;;23.20;11.00;;;;;;;0.94;75.59;98563.10;103424;1297;107511;-69
2022/12/08 02:53:59;;;;;;;23.90;11.00;;;;;;;0.93;75.94;98564.19;103443;1291;95221;-69
2022/12/08 02:56:59;;;;;;;24.50;11.20;;;;;;;0.93;75.81;98565.25;103468;1291;97858;-70
2022/12/08 02:59:43;;;;;;;23.60;10.80;;;;;;;0.93;75.81;98569.08;103442;1291;111569;-70
2022/12/08 03:02:17;;;;;;;23.50;11.00;;;;;;;0.92;75.76;98565.63;103313;1302;97863;-69
2022/12/08 03:04:52;;;;;;;24.60;11.20;;;;;;;0.92;75.98;98565.27;103427;1285;107233;-69
2022/12/08 03:08:16;;;;;;;25.70;11.30;;;;;;;0.93;75.81;98565.40;103496;1284;96687;-69
2022/12/08 03:11:04;;;;;;;24.60;11.50;;;;;;;0.93;75.85;98560.33;102827;1307;95366;-69
2022/12/08 03:13:43;;;;;;;23.40;10.60;;;;;;;0.93;75.78;98560.88;103445;1294;111175;-69
2022/12/08 03:16:17;;;;;;;23.70;10.50;;;;;;;0.91;75.75;98562.51;103441;1299;97829;-69
2022/12/08 03:18:59;;;;;;;23.60;8.90;;;;;;;0.89;75.86;98565.38;103400;1291;108140;-70
2022/12/08 03:21:34;;;;;;;23.60;11.50;;;;;;;0.86;75.77;98561.12;103415;1291;97983;-69
2022/12/08 03:24:06;;;;;;;25.00;11.70;;;;;;;0.83;75.71;98564.91;103436;1292;97871;-69
2022/12/08 03:26:46;;;;;;;23.80;10.60;;;;;;;0.80;75.72;98566.81;103436;1291;111150;-70
2022/12/08 03:29:16;;;;;;;22.80;9.90;;;;;;;0.79;75.75;98571.94;103384;1298;97870;-70
2022/12/08 03:31:55;;;;;;;22.90;10.20;;;;;;;0.75;75.77;98573.45;103466;1291;108700;-70
2022/12/08 03:34:28;;;;;;;22.60;10.60;;;;;;;0.72;75.49;98572.18;103398;1292;97068;-70
2022/12/08 03:37:01;;;;;;;26.50;11.70;;;;;;;0.69;75.65;98574.56;103405;1298;97866;-70
2022/12/08 03:39:29;;;;;;;23.00;11.50;;;;;;;0.69;75.66;98572.66;103428;1298;111173;-69
2022/12/08 03:41:57;;;;;;;24.90;11.20;;;;;;;0.68;75.72;98574.09;103525;1291;97972;-69
2022/12/08 03:44:24;;;;;;;24.60;10.80;;;;;;;0.67;75.54;98570.27;103291;1298;107994;-69
2022/12/08 03:46:53;;;;;;;25.10;12.30;;;;;;;0.68;75.79;98573.05;103408;1291;97984;-68
2022/12/08 03:49:20;;;;;;;23.80;11.10;;;;;;;0.67;75.57;98570.45;103460;1293;97955;-70
2022/12/08 03:51:51;;;;;;;22.50;10.20;;;;;;;0.66;75.62;98571.72;103442;1291;111778;-70
2022/12/08 03:54:19;;;;;;;25.00;11.40;;;;;;;0.65;75.70;98569.66;103453;1291;95211;-69
2022/12/08 03:56:50;;;;;;;24.90;11.80;;;;;;;0.65;75.52;98571.77;103552;1291;108016;-69
2022/12/08 03:59:20;;;;;;;25.00;11.40;;;;;;;0.64;75.65;98570.41;103440;1298;98742;-70
2022/12/08 04:01:47;;;;;;;25.90;11.60;;;;;;;0.63;75.39;98570.60;103331;1302;97938;-70
2022/12/08 04:04:17;;;;;;;24.00;10.60;;;;;;;0.63;75.52;98571.15;103416;1298;111749;-70
2022/12/08 04:06:47;;;;;;;22.80;10.40;;;;;;;0.63;75.53;98574.65;103563;1292;97872;-69
2022/12/08 04:09:15;;;;;;;22.00;9.80;;;;;;;0.62;75.48;98573.45;103446;1299;107798;-69
2022/12/08 04:11:43;;;;;;;22.40;10.50;;;;;;;0.60;75.46;98574.21;103425;1291;97883;-69
2022/12/08 04:14:11;;;;;;;22.20;9.20;;;;;;;0.61;75.52;98577.37;103455;1291;95208;-69
2022/12/08 04:16:39;;;;;;;23.80;10.70;;;;;;;0.60;75.53;98575.98;103502;1291;111155;-68
2022/12/08 04:19:07;;;;;;;22.70;10.20;;;;;;;0.60;75.48;98574.75;103584;1291;98579;-68
2022/12/08 04:21:36;;;;;;;23.10;11.00;;;;;;;0.57;75.57;98575.39;103544;1288;110281;-69
2022/12/08 04:24:06;;;;;;;24.70;11.30;;;;;;;0.54;75.54;98576.02;103431;1298;97967;-69
2022/12/08 04:26:34;;;;;;;22.20;10.30;;;;;;;0.53;75.53;98582.70;103446;1291;96332;-68
2022/12/08 04:29:02;;;;;;;22.80;10.20;;;;;;;0.52;75.59;98582.20;103492;1291;111628;-69
2022/12/08 04:31:30;;;;;;;24.60;10.10;;;;;;;0.52;75.42;98583.27;103537;1291;96558;-69
2022/12/08 04:33:59;;;;;;;23.00;11.50;;;;;;;0.51;75.39;98579.48;103279;1294;108092;-71
2022/12/08 04:36:29;;;;;;;23.30;11.30;;;;;;;0.51;75.39;98583.83;103410;1292;98579;-69
2022/12/08 04:38:57;;;;;;;22.80;9.90;;;;;;;0.52;75.55;98580.98;103462;1298;97955;-69
2022/12/08 04:41:24;;;;;;;25.20;11.20;;;;;;;0.53;75.53;98583.73;103420;1291;111828;-69
2022/12/08 04:43:52;;;;;;;25.20;11.80;;;;;;;0.54;75.61;98581.79;103446;1297;97883;-68
2022/12/08 04:46:20;;;;;;;26.40;11.30;;;;;;;0.56;75.46;98582.60;103171;1299;136426;-69
2022/12/08 04:48:50;;;;;;;23.40;10.70;;;;;;;0.57;75.28;98587.27;103275;1295;97910;-70
2022/12/08 04:51:20;;;;;;;26.60;12.40;;;;;;;0.57;75.34;98588.82;103346;1295;97893;-68
2022/12/08 04:53:48;;;;;;;25.40;11.30;;;;;;;0.57;75.42;98585.15;103472;1291;111597;-69
2022/12/08 04:56:19;;;;;;;30.80;13.80;;;;;;;0.58;75.45;98588.98;103461;1291;95141;-69
2022/12/08 04:58:47;;;;;;;28.20;12.40;;;;;;;0.59;75.36;98585.10;103415;1297;108122;-70
2022/12/08 05:01:15;;;;;;;30.30;13.10;;;;;;;0.60;75.40;98584.88;103278;1297;97005;-71
2022/12/08 05:03:44;;;;;;;31.80;14.40;;;;;;;0.61;75.50;98586.77;103409;1298;95221;-72
2022/12/08 05:06:14;;;;;;;33.80;14.40;;;;;;;0.62;75.32;98590.74;103417;1299;111253;-70
2022/12/08 05:08:43;;;;;;;31.80;14.50;;;;;;;0.61;75.41;98587.10;103414;1298;95153;-68
2022/12/08 05:11:13;;;;;;;31.60;14.10;;;;;;;0.62;75.38;98587.60;103491;1297;108205;-68
2022/12/08 05:13:41;;;;;;;31.80;13.80;;;;;;;0.63;75.65;98591.05;103413;1291;97877;-68
2022/12/08 05:16:13;;;;;;;29.70;13.60;;;;;;;0.64;75.37;98591.52;103463;1295;95257;-70
2022/12/08 05:18:43;;;;;;;24.80;11.90;;;;;;;0.64;75.44;98596.39;103535;1285;109899;-70
2022/12/08 05:21:11;;;;;;;26.80;12.50;;;;;;;0.64;75.25;98597.09;103174;1290;97873;-69
2022/12/08 05:23:39;;;;;;;26.00;12.00;;;;;;;0.65;75.43;98593.23;103335;1298;108153;-69
2022/12/08 05:26:09;;;;;;;27.00;11.60;;;;;;;0.65;75.58;98593.92;103368;1292;98034;-71
2022/12/08 05:28:37;;;;;;;26.10;12.80;;;;;;;0.67;75.60;98597.86;103390;1291;97970;-71
2022/12/08 05:31:14;;;;;;;27.30;12.90;;;;;;;0.69;75.29;98598.30;103408;1292;110939;-72
2022/12/08 05:33:44;;;;;;;26.30;12.50;;;;;;;0.70;75.37;98598.77;103258;1293;95301;-70
2022/12/08 05:36:14;;;;;;;26.10;12.70;;;;;;;0.72;75.65;98602.19;103368;1292;107540;-71
2022/12/08 05:38:44;;;;;;;23.30;11.00;;;;;;;0.73;75.40;98600.75;103314;1297;96319;-71
2022/12/08 05:41:17;;;;;;;23.80;11.50;;;;;;;0.73;75.32;98600.23;103380;1292;97885;-71
2022/12/08 05:43:47;;;;;;;26.50;12.30;;;;;;;0.74;75.51;98602.14;103340;1292;111738;-69
2022/12/08 05:46:17;;;;;;;25.00;12.20;;;;;;;0.72;75.43;98603.76;103414;1294;95173;-70
2022/12/08 05:48:45;;;;;;;24.70;12.00;;;;;;;0.71;75.40;98606.58;103317;1294;106478;-70
2022/12/08 05:51:19;;;;;;;24.10;11.20;;;;;;;0.70;75.13;98604.70;103395;1300;97868;-73
2022/12/08 05:53:48;;;;;;;23.70;11.20;;;;;;;0.68;75.28;98607.95;103374;1298;97876;-69
2022/12/08 05:56:17;;;;;;;25.90;11.90;;;;;;;0.62;75.18;98607.84;103458;1284;112359;-71
2022/12/08 05:58:47;;;;;;;28.80;11.70;;;;;;;0.57;75.25;98612.04;103458;1300;98006;-69
2022/12/08 06:01:24;;;;;;;25.70;11.40;;;;;;;0.52;75.40;98615.88;103408;1284;108402;-70
2022/12/08 06:03:53;;;;;;;25.40;11.90;;;;;;;0.51;75.29;98622.04;103317;1297;97910;-70
2022/12/08 06:06:21;;;;;;;27.00;11.90;;;;;;;0.48;75.51;98624.27;103450;1294;98593;-69
2022/12/08 06:08:52;;;;;;;24.50;10.80;;;;;;;0.47;75.38;98627.80;103392;1298;111442;-70
2022/12/08 06:11:30;;;;;;;25.90;12.10;;;;;;;0.44;75.33;98632.58;103353;1292;95099;-70
2022/12/08 06:14:00;;;;;;;25.40;12.00;;;;;;;0.43;75.47;98637.51;103449;1300;107563;-72
2022/12/08 06:16:30;;;;;;;30.30;14.00;;;;;;;0.42;75.39;98636.14;103422;1300;98232;-73
2022/12/08 06:19:00;;;;;;;27.10;13.30;;;;;;;0.43;75.30;98638.04;103283;1302;98031;-69
2022/12/08 06:21:28;;;;;;;27.10;12.60;;;;;;;0.44;75.31;98640.63;103320;1301;110783;-69
2022/12/08 06:23:56;;;;;;;26.70;12.00;;;;;;;0.42;75.40;98638.27;103323;1300;97677;-69
2022/12/08 06:26:26;;;;;;;27.40;12.80;;;;;;;0.41;75.40;98639.70;103339;1294;108058;-69
2022/12/08 06:28:55;;;;;;;25.80;11.80;;;;;;;0.40;75.31;98640.60;103347;1297;95298;-69
2022/12/08 06:31:26;;;;;;;27.40;12.80;;;;;;;0.39;75.39;98645.17;103400;1294;97906;-69
2022/12/08 06:33:54;;;;;;;25.80;11.80;;;;;;;0.40;75.33;98645.67;103514;1291;111218;-68
2022/12/08 06:36:27;;;;;;;27.70;12.90;;;;;;;0.40;75.48;98650.53;103559;1291;96311;-69
2022/12/08 06:38:57;;;;;;;27.40;13.40;;;;;;;0.41;75.37;98652.08;103531;1291;107779;-71
2022/12/08 06:41:25;;;;;;;28.50;12.10;;;;;;;0.43;75.40;98648.84;103519;1298;95266;-69
2022/12/08 06:43:59;;;;;;;27.70;12.60;;;;;;;0.46;75.47;98647.86;103467;1291;97972;-70
2022/12/08 06:46:27;;;;;;;25.00;11.90;;;;;;;0.49;75.42;98651.45;103456;1299;111642;-69
2022/12/08 06:48:59;;;;;;;29.00;13.60;;;;;;;0.51;75.40;98646.48;103519;1298;97933;-70
2022/12/08 06:51:27;;;;;;;27.70;13.30;;;;;;;0.55;75.35;98651.73;103291;1294;108263;-68
2022/12/08 06:53:55;;;;;;;25.60;13.30;;;;;;;0.59;75.46;98653.65;103499;1298;97975;-68
2022/12/08 06:56:26;;;;;;;28.90;14.40;;;;;;;0.63;75.43;98653.16;103358;1294;97866;-70
2022/12/08 06:58:56;;;;;;;23.80;11.30;;;;;;;0.67;75.67;98659.80;103395;1298;110853;-69
2022/12/08 07:01:24;;;;;;;28.80;13.60;;;;;;;0.71;75.53;98655.27;103376;1297;95122;-70
2022/12/08 07:03:54;;;;;;;29.00;14.10;;;;;;;0.77;75.50;98663.12;103400;1298;108031;-69
2022/12/08 07:06:24;;;;;;;30.10;14.50;;;;;;;0.80;75.38;98665.44;103268;1294;97996;-70
2022/12/08 07:08:52;;;;;;;28.30;14.30;;;;;;;0.83;75.57;98664.94;103403;1291;96244;-70
2022/12/08 07:11:20;;;;;;;30.40;15.70;;;;;;;0.86;75.76;98669.20;103433;1293;111168;-70
2022/12/08 07:13:51;;;;;;;29.10;14.30;;;;;;;0.89;75.60;98670.98;103386;1297;97864;-70
2022/12/08 07:16:19;;;;;;;29.50;14.40;;;;;;;0.92;75.77;98671.76;103499;1295;107647;-72
2022/12/08 07:18:49;;;;;;;28.80;14.90;;;;;;;0.96;75.54;98668.64;103459;1299;97873;-71
2022/12/08 07:21:17;;;;;;;28.50;14.10;;;;;;;0.99;75.58;98669.08;103402;1299;97818;-69
2022/12/08 07:23:48;;;;;;;27.90;13.40;;;;;;;1.01;75.41;98664.92;103555;1298;111800;-69
2022/12/08 07:26:26;;;;;;;29.20;14.50;;;;;;;1.05;75.67;98669.52;103546;1291;95092;-70
2022/12/08 07:28:54;;;;;;;34.50;16.30;;;;;;;1.08;75.48;98666.09;103495;1299;108204;-71
2022/12/08 07:31:27;;;;;;;33.80;16.10;;;;;;;1.11;75.87;98666.65;103402;1296;97857;-70
2022/12/08 07:33:57;;;;;;;29.60;14.10;;;;;;;1.16;75.74;98662.79;103556;1297;97953;-69
2022/12/08 07:36:27;;;;;;;31.10;15.40;;;;;;;1.20;75.63;98660.16;103542;1285;110800;-70
2022/12/08 07:38:55;;;;;;;31.50;16.00;;;;;;;1.24;75.36;98659.83;103576;1292;98311;-71
2022/12/08 07:41:25;;;;;;;31.10;16.00;;;;;;;1.28;75.40;98653.19;103515;1292;107602;-69
2022/12/08 07:43:57;;;;;;;30.20;15.50;;;;;;;1.34;75.38;98651.39;103542;1291;95192;-69
2022/12/08 07:46:26;;;;;;;35.60;16.90;;;;;;;1.40;75.44;98649.23;103477;1299;97993;-70
2022/12/08 07:48:56;;;;;;;30.50;15.20;;;;;;;1.45;75.78;98646.90;103454;1299;110925;-70
2022/12/08 07:51:24;;;;;;;32.80;16.20;;;;;;;1.45;75.54;98641.48;103454;1298;97889;-70
2022/12/08 07:53:54;;;;;;;32.90;15.60;;;;;;;1.47;75.69;98642.10;103557;1297;107486;-69
2022/12/08 07:56:24;;;;;;;29.00;15.70;;;;;;;1.49;75.55;98644.83;103443;1298;97928;-69
2022/12/08 07:58:52;;;;;;;33.30;15.90;;;;;;;1.52;75.22;98643.30;103529;1298;97916;-69
2022/12/08 08:01:25;;;;;;;30.90;16.80;;;;;;;1.55;75.68;98642.81;103567;1298;111192;-70
2022/12/08 08:04:00;;;;;;;30.70;14.50;;;;;;;1.59;75.36;98643.53;103320;1300;98565;-68
2022/12/08 08:06:33;;;;;;;28.70;16.10;;;;;;;1.61;75.29;98641.88;103430;1292;107521;-70
2022/12/08 08:09:01;;;;;;;33.70;17.50;;;;;;;1.62;75.48;98648.83;103548;1298;97983;-69
2022/12/08 08:11:29;;;;;;;29.90;15.00;;;;;;;1.62;75.46;98650.03;103553;1297;97883;-69
2022/12/08 08:13:57;;;;;;;30.00;15.90;;;;;;;1.63;75.23;98651.94;103519;1298;111119;-69
2022/12/08 08:16:27;;;;;;;31.50;16.00;;;;;;;1.66;75.41;98657.90;103541;1298;95541;-69
2022/12/08 08:19:05;;;;;;;36.10;17.00;;;;;;;1.75;75.61;98664.19;103552;1291;108089;-69
2022/12/08 08:21:32;;;;;;;30.10;14.90;;;;;;;1.82;75.53;98665.11;103486;1298;97864;-72
2022/12/08 08:24:14;;;;;;;27.20;14.20;;;;;;;1.90;75.75;98663.85;103560;1292;97944;-70
2022/12/08 08:26:42;;;;;;;29.50;15.10;;;;;;;2.00;75.53;98665.05;103415;1302;111187;-69
2022/12/08 08:29:10;;;;;;;27.40;14.30;;;;;;;2.11;75.62;98665.59;103276;1300;97827;-69
2022/12/08 08:31:38;;;;;;;28.10;14.50;;;;;;;2.23;75.38;98671.55;103396;1292;108111;-69
2022/12/08 08:34:08;;;;;;;30.50;15.60;;;;;;;2.32;75.07;98666.24;103498;1298;97918;-69
2022/12/08 08:36:36;;;;;;;26.30;14.20;;;;;;;2.43;75.33;98666.80;103563;1291;95111;-69
2022/12/08 08:39:06;;;;;;;26.90;13.60;;;;;;;2.59;75.45;98669.73;103496;1286;111145;-69
2022/12/08 08:41:34;;;;;;;25.50;13.90;;;;;;;2.80;75.50;98672.60;103262;1300;96975;-69
2022/12/08 08:44:02;;;;;;;25.90;13.00;;;;;;;3.07;75.58;98670.48;103426;1297;108173;-69
2022/12/08 08:46:30;;;;;;;26.80;14.50;;;;;;;3.28;75.26;98670.84;103451;1297;97927;-69
2022/12/08 08:49:01;;;;;;;25.70;12.80;;;;;;;3.48;75.26;98670.21;103522;1292;97930;-69
2022/12/08 08:51:29;;;;;;;26.70;13.40;;;;;;;3.69;75.40;98663.55;103425;1291;112315;-70
2022/12/08 08:53:57;;;;;;;25.10;12.70;;;;;;;4.00;75.28;98667.80;103494;1291;97821;-68
2022/12/08 08:56:25;;;;;;;25.50;12.10;;;;;;;4.34;75.47;98672.83;103405;1291;107503;-70
2022/12/08 08:58:53;;;;;;;26.80;12.60;;;;;;;4.67;75.35;98668.27;103455;1298;98072;-68
2022/12/08 09:01:27;;;;;;;23.90;11.30;;;;;;;4.89;75.30;98667.75;103445;1299;97859;-70
2022/12/08 09:03:57;;;;;;;23.60;12.20;;;;;;;5.11;75.28;98664.92;103458;1292;111194;-70
2022/12/08 09:06:27;;;;;;;23.10;11.30;;;;;;;5.34;74.96;98661.70;103446;1301;98451;-70
2022/12/08 09:08:56;;;;;;;22.90;10.70;;;;;;;5.47;74.29;98659.58;103434;1293;107489;-70
2022/12/08 09:11:23;;;;;;;24.60;12.50;;;;;;;5.34;73.43;98659.47;103476;1302;98567;-70
2022/12/08 09:13:54;;;;;;;23.00;11.50;;;;;;;5.21;73.97;98658.06;103443;1294;97963;-68
2022/12/08 09:16:23;;;;;;;22.60;10.80;;;;;;;5.44;74.06;98657.46;103447;1292;110724;-70
2022/12/08 09:18:52;;;;;;;23.40;11.70;;;;;;;5.71;74.03;98657.48;103465;1297;97852;-69
2022/12/08 09:21:24;;;;;;;22.90;12.00;;;;;;;5.77;73.99;98651.11;103289;1303;107214;-70
2022/12/08 09:23:57;;;;;;;22.80;11.40;;;;;;;5.74;73.44;98648.11;103407;1302;97873;-70
2022/12/08 09:26:27;;;;;;;21.20;10.40;;;;;;;5.69;73.70;98649.16;103407;1298;97901;-70
2022/12/08 09:28:57;;;;;;;21.90;10.70;;;;;;;5.71;73.93;98641.85;103403;1292;111494;-69
2022/12/08 09:31:26;;;;;;;22.50;11.40;;;;;;;5.70;73.71;98640.63;103395;1297;97658;-70
2022/12/08 09:33:56;;;;;;;23.90;12.30;;;;;;;5.77;74.10;98639.67;103382;1300;107753;-69
2022/12/08 09:36:25;;;;;;;25.70;12.60;;;;;;;5.93;73.79;98641.91;103351;1302;97932;-70
2022/12/08 09:38:53;;;;;;;21.40;10.80;;;;;;;5.97;73.92;98635.89;103598;1298;97897;-69
2022/12/08 09:41:30;;;;;;;23.60;11.40;;;;;;;6.01;73.93;98635.80;103445;1298;111120;-69
2022/12/08 09:44:26;;;;;;;22.40;10.90;;;;;;;6.09;73.66;98635.16;103445;1298;97836;-69
2022/12/08 09:46:57;;;;;;;21.40;10.10;;;;;;;6.16;73.92;98633.71;103446;1291;107502;-69
2022/12/08 09:49:40;;;;;;;20.80;10.40;;;;;;;6.18;73.41;98631.64;103418;1295;95511;-70
2022/12/08 09:52:32;;;;;;;23.80;10.30;;;;;;;6.17;73.67;98633.32;103438;1301;97933;-69
2022/12/08 09:55:12;;;;;;;21.50;10.00;;;;;;;6.23;73.62;98630.83;103389;1297;110870;-69
2022/12/08 09:57:40;;;;;;;21.60;9.90;;;;;;;6.34;73.78;98630.99;103431;1293;98429;-69
2022/12/08 10:00:12;;;;;;;20.60;9.60;;;;;;;6.34;73.53;98631.02;103387;1297;108105;-69
2022/12/08 10:02:44;;;;;;;21.20;9.90;;;;;;;6.29;73.57;98628.14;103419;1299;97772;-69
2022/12/08 10:05:14;;;;;;;21.40;10.20;;;;;;;6.36;73.40;98631.59;103518;1299;97826;-68
2022/12/08 10:08:08;;;;;;;18.80;8.90;;;;;;;6.47;73.54;98630.21;103516;1296;110114;-70
2022/12/08 10:10:58;;;;;;;17.00;8.30;;;;;;;6.57;72.63;98625.34;103348;1302;97770;-70
2022/12/08 10:13:26;;;;;;;22.10;9.90;;;;;;;6.65;72.95;98622.02;103436;1297;107860;-70
2022/12/08 10:16:25;;;;;;;20.20;9.80;;;;;;;6.69;73.00;98620.90;103440;1297;95422;-70
2022/12/08 10:19:12;;;;;;;;;;;;;;;6.75;72.90;98614.91;103508;1297;97905;-70
2022/12/08 10:21:42;;;;;;;20.20;9.60;;;;;;;6.76;72.86;98619.75;103539;1297;112003;-70
2022/12/08 10:24:32;;;;;;;20.80;9.70;;;;;;;6.73;72.71;98622.56;103527;1298;98035;-69
2022/12/08 10:27:04;;;;;;;18.30;8.90;;;;;;;6.58;72.12;98621.29;103513;1299;108129;-70
2022/12/08 10:29:34;;;;;;;19.80;8.60;;;;;;;6.32;71.97;98622.51;103529;1299;98038;-69
2022/12/08 10:32:19;;;;;;;21.10;9.60;;;;;;;6.01;71.72;98624.36;103508;1291;97832;-70
2022/12/08 10:35:07;;;;;;;23.20;11.70;;;;;;;5.69;71.91;98621.19;103443;1291;110932;-69
2022/12/08 10:37:37;;;;;;;20.10;10.00;;;;;;;5.52;72.22;98617.96;103522;1298;97785;-69
2022/12/08 10:40:16;;;;;;;22.40;9.90;;;;;;;5.35;72.07;98617.72;103546;1296;107584;-69
2022/12/08 10:42:56;;;;;;;20.50;9.40;;;;;;;5.20;72.20;98616.25;103530;1305;97801;-69
2022/12/08 10:45:32;;;;;;;21.60;9.50;;;;;;;5.08;72.29;98613.10;103463;1299;97984;-69
2022/12/08 10:48:05;;;;;;;20.80;10.10;;;;;;;4.96;71.74;98618.71;103398;1286;111190;-69
2022/12/08 10:50:45;;;;;;;20.40;9.80;;;;;;;4.80;71.99;98610.80;103433;1297;95086;-69
2022/12/08 10:53:24;;;;;;;18.70;9.10;;;;;;;4.75;71.99;98610.55;103381;1291;108155;-71
2022/12/08 10:56:02;;;;;;;20.70;9.60;;;;;;;4.72;72.09;98606.83;103397;1299;95134;-69
2022/12/08 10:58:34;;;;;;;20.30;9.10;;;;;;;4.73;72.20;98607.00;103411;1298;95314;-69
2022/12/08 11:01:25;;;;;;;20.40;10.40;;;;;;;4.71;72.13;98597.08;103420;1296;111206;-69
2022/12/08 11:04:00;;;;;;;22.40;10.30;;;;;;;4.62;71.69;98591.98;103398;1298;97993;-70
2022/12/08 11:06:36;;;;;;;21.10;9.90;;;;;;;4.53;71.75;98593.00;103411;1296;108113;-69
2022/12/08 11:09:18;;;;;;;22.70;10.20;;;;;;;4.51;71.73;98590.14;103520;1299;97888;-71
2022/12/08 11:11:52;;;;;;;23.50;10.10;;;;;;;4.47;71.65;98589.45;103535;1298;97892;-68
2022/12/08 11:14:45;;;;;;;22.90;11.00;;;;;;;4.39;71.53;98595.54;103385;1291;110747;-69
2022/12/08 11:17:27;;;;;;;21.90;9.90;;;;;;;4.33;71.60;98594.77;103412;1298;96944;-69
2022/12/08 11:20:03;;;;;;;22.90;10.20;;;;;;;4.29;71.37;98600.44;103427;1297;107544;-69
2022/12/08 11:22:42;;;;;;;21.00;10.10;;;;;;;4.22;71.16;98600.84;103407;1299;97977;-69
2022/12/08 11:25:14;;;;;;;21.40;9.90;;;;;;;4.13;71.10;98603.02;103488;1297;95135;-70
2022/12/08 11:27:47;;;;;;;20.60;9.10;;;;;;;4.11;71.37;98601.41;103393;1298;111767;-69
2022/12/08 11:30:22;;;;;;;23.10;10.40;;;;;;;4.08;71.26;98597.34;103466;1299;98523;-69
2022/12/08 11:33:19;;;;;;;21.60;10.10;;;;;;;4.08;71.37;98593.64;103391;1299;107536;-69
2022/12/08 11:35:54;;;;;;;22.40;10.40;;;;;;;4.09;71.25;98587.64;103426;1299;97840;-69
2022/12/08 11:38:26;;;;;;;24.10;10.40;;;;;;;4.09;71.50;98583.26;103429;1299;98302;-69
2022/12/08 11:41:06;;;;;;;23.60;10.50;;;;;;;4.11;70.89;98588.93;103408;1286;111020;-69